createdAt,value
2018-12-30T00:01:04.895Z,54.80
2018-12-30T00:03:31.548Z,54.80
2018-12-30T00:05:58.245Z,54.80
2018-12-30T00:08:24.923Z,54.80
2018-12-30T00:10:51.641Z,54.80
2018-12-30T00:13:18.344Z,54.80
2018-12-30T00:15:45.047Z,54.80
2018-12-30T00:18:11.728Z,54.80
2018-12-30T00:20:38.832Z,54.80
2018-12-30T00:23:05.133Z,54.90
2018-12-30T00:25:31.812Z,55.50
2018-12-30T00:27:58.521Z,54.80
2018-12-30T00:30:25.230Z,54.80
2018-12-30T00:32:51.908Z,54.80
2018-12-30T00:35:18.578Z,54.80
2018-12-30T00:37:45.269Z,54.80
2018-12-30T00:40:11.969Z,54.80
2018-12-30T00:42:38.653Z,54.90
2018-12-30T00:45:05.382Z,54.80
2018-12-30T00:47:32.050Z,54.90
2018-12-30T00:49:58.737Z,54.90
2018-12-30T00:52:25.436Z,54.90
2018-12-30T00:54:52.129Z,54.90
2018-12-30T00:57:18.813Z,54.90
2018-12-30T00:59:45.504Z,54.90
2018-12-30T01:02:12.212Z,54.90
2018-12-30T01:04:38.933Z,54.90
2018-12-30T01:07:05.625Z,55.00
2018-12-30T01:09:32.325Z,55.00
2018-12-30T01:11:59.005Z,55.00
2018-12-30T01:14:25.717Z,54.90
2018-12-30T01:16:52.385Z,55.00
2018-12-30T01:19:19.070Z,55.00
2018-12-30T01:21:45.765Z,55.00
2018-12-30T01:24:12.438Z,55.00
2018-12-30T01:26:39.130Z,55.10
2018-12-30T01:29:05.820Z,55.00
2018-12-30T01:31:32.532Z,55.20
2018-12-30T01:33:59.218Z,55.10
2018-12-30T01:36:25.870Z,55.00
2018-12-30T01:38:52.560Z,55.10
2018-12-30T01:41:19.230Z,55.10
2018-12-30T01:43:45.906Z,55.10
2018-12-30T01:46:12.604Z,55.20
2018-12-30T01:48:39.316Z,55.20
2018-12-30T01:51:06.025Z,55.20
2018-12-30T01:53:32.696Z,55.20
2018-12-30T01:55:59.381Z,55.20
2018-12-30T01:58:26.050Z,55.30
2018-12-30T02:00:52.755Z,55.30
2018-12-30T02:03:19.460Z,55.20
2018-12-30T02:05:46.121Z,55.30
2018-12-30T02:08:12.800Z,55.30
2018-12-30T02:10:39.495Z,55.30
2018-12-30T02:13:06.179Z,55.30
2018-12-30T02:15:32.864Z,55.30
2018-12-30T02:17:59.602Z,55.30
2018-12-30T02:20:26.279Z,55.30
2018-12-30T02:22:52.983Z,55.40
2018-12-30T02:25:19.661Z,55.30
2018-12-30T02:27:46.352Z,55.30
2018-12-30T02:30:13.054Z,55.30
2018-12-30T02:32:39.768Z,55.30
2018-12-30T02:35:06.475Z,55.40
2018-12-30T02:37:33.144Z,55.30
2018-12-30T02:39:59.841Z,55.40
2018-12-30T02:42:26.515Z,55.40
2018-12-30T02:44:53.225Z,55.50
2018-12-30T02:47:19.937Z,55.40
2018-12-30T02:49:46.625Z,55.50
2018-12-30T02:52:13.305Z,55.50
2018-12-30T02:54:39.998Z,55.50
2018-12-30T02:57:06.664Z,55.50
2018-12-30T02:59:33.345Z,55.50
2018-12-30T03:02:00.043Z,55.50
2018-12-30T03:04:26.729Z,55.50
2018-12-30T03:06:53.442Z,55.60
2018-12-30T03:09:20.113Z,55.60
2018-12-30T03:11:46.770Z,55.60
2018-12-30T03:14:13.450Z,55.60
2018-12-30T03:16:40.133Z,55.60
2018-12-30T03:19:06.863Z,55.60
2018-12-30T03:21:33.518Z,55.50
2018-12-30T03:24:00.187Z,55.50
2018-12-30T03:26:26.872Z,55.50
2018-12-30T03:28:53.536Z,55.60
2018-12-30T03:31:20.221Z,55.60
2018-12-30T03:33:46.887Z,55.60
2018-12-30T03:36:13.596Z,55.70
2018-12-30T03:38:40.269Z,55.60
2018-12-30T03:41:06.937Z,55.70
2018-12-30T03:43:33.605Z,55.70
2018-12-30T03:46:00.261Z,55.70
2018-12-30T03:48:26.960Z,55.60
2018-12-30T03:50:53.654Z,55.70
2018-12-30T03:53:20.328Z,55.70
2018-12-30T03:55:46.982Z,55.70
2018-12-30T03:58:13.654Z,55.80
2018-12-30T04:00:40.321Z,55.80
2018-12-30T04:03:07.016Z,55.70
2018-12-30T04:05:33.695Z,55.80
2018-12-30T04:08:00.356Z,55.90
2018-12-30T04:10:27.029Z,55.80
2018-12-30T04:12:53.713Z,55.80
2018-12-30T04:15:20.364Z,55.80
2018-12-30T04:17:47.048Z,55.90
2018-12-30T04:20:13.732Z,55.80
2018-12-30T04:22:40.404Z,55.90
2018-12-30T04:25:07.078Z,55.90
2018-12-30T04:27:33.740Z,56.00
2018-12-30T04:30:00.440Z,55.90
2018-12-30T04:32:27.109Z,56.00
2018-12-30T04:34:53.769Z,56.00
2018-12-30T04:37:20.502Z,56.00
2018-12-30T04:39:47.179Z,56.00
2018-12-30T04:42:13.845Z,56.00
2018-12-30T04:44:40.528Z,56.00
2018-12-30T04:47:07.218Z,56.00
2018-12-30T04:49:33.874Z,56.00
2018-12-30T04:52:00.549Z,56.10
2018-12-30T04:54:27.225Z,56.10
2018-12-30T04:56:53.996Z,56.20
2018-12-30T04:59:20.628Z,56.10
2018-12-30T05:01:47.320Z,56.10
2018-12-30T05:04:14.008Z,56.20
2018-12-30T05:06:40.693Z,56.10
2018-12-30T05:09:07.380Z,56.20
2018-12-30T05:11:34.043Z,56.20
2018-12-30T05:14:00.765Z,56.20
2018-12-30T05:16:27.447Z,56.20
2018-12-30T05:18:54.112Z,56.20
2018-12-30T05:21:20.792Z,56.20
2018-12-30T05:23:47.460Z,56.30
2018-12-30T05:26:14.145Z,56.20
2018-12-30T05:28:40.817Z,56.20
2018-12-30T05:31:07.503Z,56.20
2018-12-30T05:33:34.160Z,56.20
2018-12-30T05:36:00.827Z,56.30
2018-12-30T05:38:27.535Z,56.40
2018-12-30T05:40:54.197Z,56.40
2018-12-30T05:43:20.857Z,56.30
2018-12-30T05:45:47.565Z,56.40
2018-12-30T05:48:14.238Z,56.30
2018-12-30T05:50:40.909Z,56.30
2018-12-30T05:53:07.589Z,56.30
2018-12-30T05:55:34.252Z,56.50
2018-12-30T05:58:00.932Z,56.40
2018-12-30T06:00:27.608Z,56.30
2018-12-30T06:02:54.279Z,56.40
2018-12-30T06:05:20.940Z,56.30
2018-12-30T06:07:47.601Z,56.30
2018-12-30T06:10:14.245Z,56.20
2018-12-30T06:12:40.929Z,56.30
2018-12-30T06:15:07.599Z,56.30
2018-12-30T06:17:34.261Z,56.30
2018-12-30T06:20:00.936Z,56.30
2018-12-30T06:22:27.630Z,56.30
2018-12-30T06:24:54.280Z,56.40
2018-12-30T06:27:20.969Z,56.40
2018-12-30T06:29:47.648Z,56.40
2018-12-30T06:32:14.536Z,56.20
2018-12-30T06:34:41.209Z,56.30
2018-12-30T06:37:07.863Z,56.20
2018-12-30T06:39:34.573Z,56.20
2018-12-30T06:42:01.229Z,56.20
2018-12-30T06:44:27.893Z,56.20
2018-12-30T06:46:54.560Z,56.20
2018-12-30T06:49:21.225Z,56.20
2018-12-30T06:51:47.906Z,56.20
2018-12-30T06:54:14.576Z,56.20
2018-12-30T06:56:41.226Z,56.20
2018-12-30T06:59:07.911Z,56.20
2018-12-30T07:01:34.572Z,56.10
2018-12-30T07:04:01.273Z,56.20
2018-12-30T07:06:27.948Z,56.20
2018-12-30T07:08:54.614Z,56.10
2018-12-30T07:11:21.292Z,56.10
2018-12-30T07:13:47.974Z,56.00
2018-12-30T07:16:14.670Z,56.00
2018-12-30T07:18:41.335Z,56.10
2018-12-30T07:21:08.025Z,56.10
2018-12-30T07:23:34.704Z,56.00
2018-12-30T07:26:01.381Z,56.00
2018-12-30T07:28:28.053Z,56.00
2018-12-30T07:30:54.733Z,55.90
2018-12-30T07:33:23.094Z,55.90
2018-12-30T07:35:48.102Z,55.80
2018-12-30T07:38:14.768Z,55.90
2018-12-30T07:40:41.529Z,56.60
2018-12-30T07:43:08.201Z,55.90
2018-12-30T07:45:34.881Z,55.80
2018-12-30T07:48:01.569Z,55.70
2018-12-30T07:50:28.227Z,55.70
2018-12-30T07:52:54.905Z,55.70
2018-12-30T07:55:21.586Z,55.60
2018-12-30T07:57:48.257Z,55.60
2018-12-30T08:00:14.922Z,55.60
2018-12-30T08:02:41.620Z,55.50
2018-12-30T08:05:08.299Z,55.50
2018-12-30T08:07:34.969Z,55.50
2018-12-30T08:10:01.646Z,55.40
2018-12-30T08:12:28.338Z,55.40
2018-12-30T08:14:55.013Z,55.30
2018-12-30T08:17:21.696Z,55.30
2018-12-30T08:19:48.352Z,55.20
2018-12-30T08:22:15.021Z,55.20
2018-12-30T08:24:41.716Z,55.20
2018-12-30T08:27:08.370Z,55.20
2018-12-30T08:29:35.032Z,55.20
2018-12-30T08:32:01.700Z,55.20
2018-12-30T08:34:28.361Z,55.20
2018-12-30T08:36:55.025Z,55.10
2018-12-30T08:39:21.705Z,55.10
2018-12-30T08:41:48.412Z,55.00
2018-12-30T08:44:15.089Z,55.00
2018-12-30T08:46:41.817Z,55.00
2018-12-30T08:49:08.489Z,55.00
2018-12-30T08:51:35.193Z,55.00
2018-12-30T08:54:01.904Z,54.90
2018-12-30T08:56:28.578Z,54.90
2018-12-30T08:58:55.259Z,54.80
2018-12-30T09:01:28.233Z,54.80
2018-12-30T09:03:48.640Z,54.80
2018-12-30T09:06:15.330Z,54.80
2018-12-30T09:08:42.016Z,54.80
2018-12-30T09:11:08.716Z,54.80
2018-12-30T09:13:35.389Z,54.80
2018-12-30T09:16:02.053Z,54.80
2018-12-30T09:18:28.723Z,54.80
2018-12-30T09:20:55.383Z,54.80
2018-12-30T09:23:22.082Z,54.70
2018-12-30T09:25:48.752Z,54.80
2018-12-30T09:28:15.428Z,54.70
2018-12-30T09:30:42.086Z,54.70
2018-12-30T09:33:08.754Z,54.70
2018-12-30T09:35:35.474Z,54.60
2018-12-30T09:38:02.169Z,54.60
2018-12-30T09:40:28.829Z,54.60
2018-12-30T09:42:55.521Z,54.60
2018-12-30T09:45:22.209Z,54.60
2018-12-30T09:47:48.864Z,54.60
2018-12-30T09:50:15.553Z,54.50
2018-12-30T09:52:42.249Z,54.50
2018-12-30T09:55:08.913Z,54.50
2018-12-30T09:57:35.590Z,54.50
2018-12-30T10:00:02.406Z,54.50
2018-12-30T10:02:29.093Z,54.50
2018-12-30T10:04:55.868Z,54.40
2018-12-30T10:07:22.538Z,54.40
2018-12-30T10:09:49.219Z,54.30
2018-12-30T10:12:15.877Z,54.40
2018-12-30T10:14:42.548Z,54.40
2018-12-30T10:17:09.225Z,54.40
2018-12-30T10:19:35.911Z,54.40
2018-12-30T10:22:02.636Z,54.40
2018-12-30T10:24:29.325Z,54.40
2018-12-30T10:26:56.005Z,54.30
2018-12-30T10:29:22.706Z,54.30
2018-12-30T10:31:49.388Z,54.30
2018-12-30T10:34:16.086Z,54.30
2018-12-30T10:36:42.781Z,54.20
2018-12-30T10:39:09.468Z,54.30
2018-12-30T10:41:36.154Z,54.20
2018-12-30T10:44:03.250Z,54.20
2018-12-30T10:46:29.936Z,54.20
2018-12-30T10:48:56.605Z,54.10
2018-12-30T10:51:23.362Z,54.10
2018-12-30T10:53:50.047Z,54.10
2018-12-30T10:56:16.734Z,54.10
2018-12-30T10:58:43.529Z,54.00
2018-12-30T11:01:10.193Z,54.00
2018-12-30T11:03:36.865Z,54.00
2018-12-30T11:06:03.556Z,54.00
2018-12-30T11:08:30.232Z,54.00
2018-12-30T11:10:56.897Z,54.00
2018-12-30T11:13:23.580Z,54.00
2018-12-30T11:15:50.258Z,54.00
2018-12-30T11:18:16.924Z,54.00
2018-12-30T11:20:43.600Z,54.00
2018-12-30T11:23:10.258Z,54.00
2018-12-30T11:25:36.953Z,54.00
2018-12-30T11:28:03.688Z,54.00
2018-12-30T11:30:30.388Z,54.00
2018-12-30T11:32:57.061Z,54.00
2018-12-30T11:35:23.753Z,54.00
2018-12-30T11:37:50.424Z,53.90
2018-12-30T11:40:17.104Z,54.60
2018-12-30T11:42:43.810Z,54.00
2018-12-30T11:45:10.512Z,53.90
2018-12-30T11:47:37.190Z,54.00
2018-12-30T11:50:04.353Z,53.90
2018-12-30T11:52:31.055Z,53.90
2018-12-30T11:54:57.741Z,53.90
2018-12-30T11:57:24.425Z,53.90
2018-12-30T11:59:51.102Z,54.00
2018-12-30T12:02:24.086Z,53.90
2018-12-30T12:04:44.500Z,54.50
2018-12-30T12:07:11.183Z,53.90
2018-12-30T12:09:37.858Z,53.90
2018-12-30T12:12:04.540Z,53.90
2018-12-30T12:14:31.221Z,53.90
2018-12-30T12:16:57.919Z,53.90
2018-12-30T12:19:24.615Z,53.90
2018-12-30T12:21:51.297Z,53.90
2018-12-30T12:24:24.260Z,53.90
2018-12-30T12:26:44.697Z,54.60
2018-12-30T12:29:11.370Z,53.90
2018-12-30T12:31:38.068Z,53.90
2018-12-30T12:34:04.729Z,53.90
2018-12-30T12:36:31.421Z,53.90
2018-12-30T12:38:58.113Z,53.90
2018-12-30T12:41:24.776Z,53.90
2018-12-30T12:43:51.469Z,53.90
2018-12-30T12:46:18.163Z,53.80
2018-12-30T12:48:44.845Z,53.90
2018-12-30T12:51:11.552Z,53.90
2018-12-30T12:53:38.205Z,53.90
2018-12-30T12:56:04.881Z,53.90
2018-12-30T12:58:31.561Z,53.90
2018-12-30T13:00:58.233Z,53.90
2018-12-30T13:03:24.969Z,53.90
2018-12-30T13:05:51.596Z,53.90
2018-12-30T13:08:18.270Z,53.90
2018-12-30T13:10:44.956Z,53.90
2018-12-30T13:13:11.633Z,53.90
2018-12-30T13:15:38.290Z,53.90
2018-12-30T13:18:04.999Z,53.90
2018-12-30T13:20:31.671Z,53.90
2018-12-30T13:22:58.336Z,53.90
2018-12-30T13:25:25.018Z,54.00
2018-12-30T13:27:51.697Z,53.90
2018-12-30T13:30:18.393Z,53.90
2018-12-30T13:32:45.090Z,53.90
2018-12-30T13:35:11.777Z,53.90
2018-12-30T13:37:38.469Z,53.90
2018-12-30T13:40:05.263Z,53.90
2018-12-30T13:42:31.958Z,53.90
2018-12-30T13:44:58.638Z,53.80
2018-12-30T13:47:25.325Z,53.80
2018-12-30T13:49:52.501Z,53.80
2018-12-30T13:52:19.197Z,53.80
2018-12-30T13:54:47.840Z,53.80
2018-12-30T13:57:12.605Z,53.80
2018-12-30T13:59:39.283Z,53.80
2018-12-30T14:02:05.975Z,53.80
2018-12-30T14:04:32.661Z,53.80
2018-12-30T14:06:59.301Z,53.90
2018-12-30T14:09:25.960Z,53.90
2018-12-30T14:11:52.637Z,53.90
2018-12-30T14:14:19.330Z,53.80
2018-12-30T14:16:46.005Z,53.80
2018-12-30T14:19:12.658Z,53.80
2018-12-30T14:21:39.336Z,53.90
2018-12-30T14:24:05.997Z,53.90
2018-12-30T14:26:32.668Z,53.90
2018-12-30T14:28:59.350Z,53.80
2018-12-30T14:31:26.097Z,53.80
2018-12-30T14:33:52.740Z,53.80
2018-12-30T14:36:20.197Z,53.80
2018-12-30T14:38:46.936Z,53.80
2018-12-30T14:41:13.671Z,53.80
2018-12-30T14:43:40.359Z,53.80
2018-12-30T14:46:07.512Z,53.80
2018-12-30T14:48:34.198Z,53.70
2018-12-30T14:51:00.989Z,53.70
2018-12-30T14:53:27.744Z,53.70
2018-12-30T14:55:54.478Z,53.60
2018-12-30T14:58:21.157Z,53.70
2018-12-30T15:00:47.865Z,53.60
2018-12-30T15:03:14.554Z,53.50
2018-12-30T15:05:41.231Z,53.50
2018-12-30T15:08:07.902Z,53.50
2018-12-30T15:10:34.729Z,53.50
2018-12-30T15:13:01.400Z,53.50
2018-12-30T15:15:28.106Z,53.40
2018-12-30T15:17:54.804Z,53.40
2018-12-30T15:20:21.489Z,53.50
2018-12-30T15:22:48.198Z,53.50
2018-12-30T15:25:14.869Z,53.40
2018-12-30T15:27:41.578Z,53.40
2018-12-30T15:30:08.528Z,53.40
2018-12-30T15:32:35.207Z,53.40
2018-12-30T15:35:01.899Z,53.40
2018-12-30T15:37:28.576Z,53.40
2018-12-30T15:39:55.254Z,53.40
2018-12-30T15:42:21.953Z,53.30
2018-12-30T15:44:48.657Z,53.30
2018-12-30T15:47:15.358Z,53.30
2018-12-30T15:49:42.088Z,53.30
2018-12-30T15:52:08.764Z,53.20
2018-12-30T15:54:35.456Z,53.30
2018-12-30T15:57:02.152Z,53.80
2018-12-30T15:59:28.873Z,53.90
2018-12-30T16:01:55.565Z,53.20
2018-12-30T16:04:22.260Z,53.20
2018-12-30T16:06:48.920Z,53.20
2018-12-30T16:09:15.604Z,53.20
2018-12-30T16:11:42.289Z,53.20
2018-12-30T16:14:08.984Z,53.80
2018-12-30T16:16:35.668Z,53.20
2018-12-30T16:19:02.337Z,53.20
2018-12-30T16:21:29.032Z,53.20
2018-12-30T16:23:55.745Z,53.20
2018-12-30T16:26:22.410Z,53.10
2018-12-30T16:28:49.096Z,53.70
2018-12-30T16:31:15.780Z,53.10
2018-12-30T16:33:42.447Z,53.00
2018-12-30T16:36:09.132Z,53.00
2018-12-30T16:38:35.797Z,53.00
2018-12-30T16:41:02.501Z,53.10
2018-12-30T16:43:29.166Z,53.00
2018-12-30T16:45:55.876Z,53.10
2018-12-30T16:48:22.565Z,53.00
2018-12-30T16:50:49.245Z,53.00
2018-12-30T16:53:15.953Z,53.00
2018-12-30T16:55:42.654Z,52.90
2018-12-30T16:58:09.339Z,53.60
2018-12-30T17:00:36.018Z,52.90
2018-12-30T17:03:02.705Z,52.90
2018-12-30T17:05:29.367Z,52.90
2018-12-30T17:07:56.106Z,52.90
2018-12-30T17:10:22.756Z,52.80
2018-12-30T17:12:49.429Z,52.80
2018-12-30T17:15:16.127Z,52.80
2018-12-30T17:17:42.801Z,52.90
2018-12-30T17:20:09.523Z,52.80
2018-12-30T17:22:36.209Z,52.80
2018-12-30T17:25:02.895Z,52.80
2018-12-30T17:27:29.602Z,52.70
2018-12-30T17:29:56.274Z,52.70
2018-12-30T17:32:22.941Z,52.60
2018-12-30T17:34:50.676Z,52.60
2018-12-30T17:37:17.352Z,52.60
2018-12-30T17:39:44.027Z,52.50
2018-12-30T17:42:10.726Z,52.60
2018-12-30T17:44:37.419Z,52.50
2018-12-30T17:47:04.124Z,52.60
2018-12-30T17:49:30.809Z,52.60
2018-12-30T17:51:57.530Z,52.50
2018-12-30T17:54:24.211Z,52.50
2018-12-30T17:56:50.997Z,52.40
2018-12-30T17:59:17.658Z,52.40
2018-12-30T18:01:44.322Z,52.40
2018-12-30T18:04:11.009Z,52.50
2018-12-30T18:06:37.704Z,52.40
2018-12-30T18:09:04.868Z,52.40
2018-12-30T18:11:31.565Z,52.30
2018-12-30T18:13:58.249Z,52.40
2018-12-30T18:16:24.946Z,52.30
2018-12-30T18:18:51.637Z,52.30
2018-12-30T18:21:18.309Z,52.30
2018-12-30T18:23:44.984Z,52.30
2018-12-30T18:26:11.652Z,52.30
2018-12-30T18:28:38.345Z,52.30
2018-12-30T18:31:05.632Z,52.30
2018-12-30T18:33:32.312Z,52.30
2018-12-30T18:35:59.011Z,52.30
2018-12-30T18:38:25.672Z,52.30
2018-12-30T18:40:52.381Z,52.30
2018-12-30T18:43:19.061Z,52.20
2018-12-30T18:45:45.745Z,52.30
2018-12-30T18:48:12.440Z,52.30
2018-12-30T18:50:39.145Z,52.30
2018-12-30T18:53:05.833Z,52.20
2018-12-30T18:55:32.505Z,52.30
2018-12-30T18:57:59.169Z,52.30
2018-12-30T19:00:25.862Z,52.20
2018-12-30T19:02:52.536Z,52.20
2018-12-30T19:05:19.222Z,52.30
2018-12-30T19:07:45.907Z,52.20
2018-12-30T19:10:12.597Z,52.20
2018-12-30T19:12:39.290Z,52.20
2018-12-30T19:15:05.994Z,52.20
2018-12-30T19:17:32.706Z,52.30
2018-12-30T19:19:59.371Z,52.30
2018-12-30T19:22:26.065Z,52.20
2018-12-30T19:24:52.744Z,52.30
2018-12-30T19:27:19.424Z,52.30
2018-12-30T19:29:46.097Z,52.30
2018-12-30T19:32:12.757Z,52.30
2018-12-30T19:34:39.413Z,52.30
2018-12-30T19:37:06.124Z,52.30
2018-12-30T19:39:32.809Z,52.30
2018-12-30T19:41:59.504Z,52.30
2018-12-30T19:44:26.173Z,52.20
2018-12-30T19:46:52.852Z,52.20
2018-12-30T19:49:19.547Z,52.20
2018-12-30T19:51:46.209Z,52.20
2018-12-30T19:54:12.880Z,52.20
2018-12-30T19:56:39.564Z,52.20
2018-12-30T19:59:06.264Z,52.20
2018-12-30T20:01:32.957Z,52.20
2018-12-30T20:03:59.640Z,52.20
2018-12-30T20:06:26.306Z,52.10
2018-12-30T20:08:53.002Z,52.20
2018-12-30T20:11:19.679Z,52.20
2018-12-30T20:13:46.345Z,52.20
2018-12-30T20:16:13.057Z,52.20
2018-12-30T20:18:39.757Z,52.20
2018-12-30T20:21:06.428Z,52.20
2018-12-30T20:23:33.117Z,52.20
2018-12-30T20:25:59.809Z,52.20
2018-12-30T20:28:26.484Z,52.20
2018-12-30T20:30:53.183Z,52.30
2018-12-30T20:33:19.866Z,52.20
2018-12-30T20:35:46.553Z,52.20
2018-12-30T20:38:13.233Z,52.20
2018-12-30T20:40:39.915Z,52.20
2018-12-30T20:43:06.600Z,52.20
2018-12-30T20:45:33.264Z,52.20
2018-12-30T20:47:59.943Z,52.30
2018-12-30T20:50:26.674Z,52.20
2018-12-30T20:52:53.346Z,52.30
2018-12-30T20:55:20.060Z,52.30
2018-12-30T20:57:46.741Z,52.20
2018-12-30T21:00:13.422Z,52.20
2018-12-30T21:02:40.132Z,52.20
2018-12-30T21:05:06.868Z,52.30
2018-12-30T21:07:33.545Z,52.30
2018-12-30T21:10:00.216Z,52.20
2018-12-30T21:12:26.887Z,52.20
2018-12-30T21:14:53.536Z,52.30
2018-12-30T21:17:20.233Z,52.30
2018-12-30T21:19:46.917Z,52.30
2018-12-30T21:22:13.605Z,52.30
2018-12-30T21:24:40.285Z,52.30
2018-12-30T21:27:06.960Z,52.20
2018-12-30T21:29:33.645Z,52.20
2018-12-30T21:32:00.358Z,52.20
2018-12-30T21:34:27.053Z,52.30
2018-12-30T21:36:53.721Z,52.30
2018-12-30T21:39:20.394Z,52.20
2018-12-30T21:41:47.072Z,52.20
2018-12-30T21:44:13.744Z,52.20
2018-12-30T21:46:40.700Z,52.30
2018-12-30T21:49:07.371Z,52.30
2018-12-30T21:51:34.061Z,52.20
2018-12-30T21:54:00.728Z,52.30
2018-12-30T21:56:27.398Z,52.30
2018-12-30T21:58:54.057Z,52.40
2018-12-30T22:01:20.737Z,52.30
2018-12-30T22:03:47.406Z,52.30
2018-12-30T22:06:14.076Z,52.30
2018-12-30T22:08:40.776Z,52.30
2018-12-30T22:11:07.464Z,52.30
2018-12-30T22:13:34.141Z,52.30
2018-12-30T22:16:00.816Z,52.30
2018-12-30T22:18:27.496Z,52.20
2018-12-30T22:20:54.183Z,52.30
2018-12-30T22:23:20.877Z,52.30
2018-12-30T22:25:47.557Z,52.30
2018-12-30T22:28:14.236Z,52.20
2018-12-30T22:30:40.928Z,52.30
2018-12-30T22:33:07.620Z,52.30
2018-12-30T22:35:34.277Z,52.30
2018-12-30T22:38:00.948Z,52.30
2018-12-30T22:40:27.649Z,52.30
2018-12-30T22:42:54.313Z,52.30
2018-12-30T22:45:20.985Z,52.30
2018-12-30T22:47:47.659Z,52.30
2018-12-30T22:50:14.325Z,52.30
2018-12-30T22:52:41.009Z,52.30
2018-12-30T22:55:07.696Z,52.30
2018-12-30T22:57:34.366Z,52.20
2018-12-30T23:00:01.066Z,52.30
2018-12-30T23:02:27.760Z,52.30
2018-12-30T23:04:54.380Z,52.30
2018-12-30T23:07:21.138Z,52.30
2018-12-30T23:12:21.156Z,52.30
2018-12-30T23:14:47.825Z,52.30
2018-12-30T23:17:14.522Z,52.40
2018-12-30T23:19:41.189Z,52.30
2018-12-30T23:22:07.857Z,52.30
2018-12-30T23:24:34.520Z,52.30
2018-12-30T23:27:01.206Z,52.30
2018-12-30T23:29:27.901Z,52.30
2018-12-30T23:31:54.590Z,52.40
2018-12-30T23:34:21.251Z,52.40
2018-12-30T23:36:47.915Z,52.30
2018-12-30T23:39:14.604Z,52.40
2018-12-30T23:41:41.286Z,52.40
2018-12-30T23:44:09.304Z,52.30
2018-12-30T23:46:34.673Z,52.30
2018-12-30T23:49:01.325Z,52.30
2018-12-30T23:51:28.019Z,52.30
2018-12-30T23:53:54.693Z,52.40
2018-12-30T23:56:21.366Z,52.40
2018-12-30T23:58:48.041Z,52.30
